sensor_id;sensor_type;location;lat;lon;timestamp;P1;durP1;ratioP1;P2;durP2;ratioP2
2474;SDS011;1248;48.694;10.160;2024-03-02T00:00:19;35.40;;;20.30;;
2474;SDS011;1248;48.694;10.160;2024-03-02T00:02:47;34.90;;;19.83;;
2474;SDS011;1248;48.694;10.160;2024-03-02T00:05:16;37.67;;;19.53;;
2474;SDS011;1248;48.694;10.160;2024-03-02T00:07:44;36.67;;;21.63;;
2474;SDS011;1248;48.694;10.160;2024-03-02T00:10:14;36.23;;;21.03;;
2474;SDS011;1248;48.694;10.160;2024-03-02T00:12:43;36.50;;;21.83;;
2474;SDS011;1248;48.694;10.160;2024-03-02T00:15:25;37.03;;;20.67;;
2474;SDS011;1248;48.694;10.160;2024-03-02T00:18:00;33.67;;;20.87;;
2474;SDS011;1248;48.694;10.160;2024-03-02T00:20:27;35.87;;;21.27;;
2474;SDS011;1248;48.694;10.160;2024-03-02T00:22:56;37.07;;;21.10;;
2474;SDS011;1248;48.694;10.160;2024-03-02T00:25:27;45.23;;;21.77;;
2474;SDS011;1248;48.694;10.160;2024-03-02T00:27:54;38.80;;;22.43;;
2474;SDS011;1248;48.694;10.160;2024-03-02T00:30:33;36.17;;;21.70;;
2474;SDS011;1248;48.694;10.160;2024-03-02T00:33:11;32.60;;;19.10;;
2474;SDS011;1248;48.694;10.160;2024-03-02T00:35:38;34.80;;;19.90;;
2474;SDS011;1248;48.694;10.160;2024-03-02T00:38:05;30.50;;;18.73;;
2474;SDS011;1248;48.694;10.160;2024-03-02T00:40:32;33.80;;;18.07;;
2474;SDS011;1248;48.694;10.160;2024-03-02T00:42:59;32.83;;;20.50;;
2474;SDS011;1248;48.694;10.160;2024-03-02T00:45:26;34.80;;;19.80;;
2474;SDS011;1248;48.694;10.160;2024-03-02T00:47:55;33.00;;;18.90;;
2474;SDS011;1248;48.694;10.160;2024-03-02T00:50:22;34.57;;;20.40;;
2474;SDS011;1248;48.694;10.160;2024-03-02T00:52:49;33.90;;;19.23;;
2474;SDS011;1248;48.694;10.160;2024-03-02T00:55:16;32.50;;;19.97;;
2474;SDS011;1248;48.694;10.160;2024-03-02T00:57:43;33.47;;;20.07;;
2474;SDS011;1248;48.694;10.160;2024-03-02T01:00:11;33.53;;;18.93;;
2474;SDS011;1248;48.694;10.160;2024-03-02T01:02:40;32.67;;;21.60;;
2474;SDS011;1248;48.694;10.160;2024-03-02T01:05:10;37.23;;;20.50;;
2474;SDS011;1248;48.694;10.160;2024-03-02T01:07:37;32.90;;;21.37;;
2474;SDS011;1248;48.694;10.160;2024-03-02T01:10:05;34.50;;;21.10;;
2474;SDS011;1248;48.694;10.160;2024-03-02T01:12:33;32.73;;;20.77;;
2474;SDS011;1248;48.694;10.160;2024-03-02T01:15:00;36.77;;;20.70;;
2474;SDS011;1248;48.694;10.160;2024-03-02T01:17:29;34.17;;;20.47;;
2474;SDS011;1248;48.694;10.160;2024-03-02T01:19:56;33.67;;;21.13;;
2474;SDS011;1248;48.694;10.160;2024-03-02T01:22:25;34.60;;;20.90;;
2474;SDS011;1248;48.694;10.160;2024-03-02T01:24:52;36.27;;;21.83;;
2474;SDS011;1248;48.694;10.160;2024-03-02T01:27:19;37.63;;;21.00;;
2474;SDS011;1248;48.694;10.160;2024-03-02T01:29:46;36.00;;;20.67;;
2474;SDS011;1248;48.694;10.160;2024-03-02T01:32:13;37.87;;;21.33;;
2474;SDS011;1248;48.694;10.160;2024-03-02T01:34:40;38.63;;;20.83;;
2474;SDS011;1248;48.694;10.160;2024-03-02T01:37:07;42.67;;;22.80;;
2474;SDS011;1248;48.694;10.160;2024-03-02T01:39:36;35.23;;;22.80;;
2474;SDS011;1248;48.694;10.160;2024-03-02T01:42:03;38.47;;;21.80;;
2474;SDS011;1248;48.694;10.160;2024-03-02T01:44:30;36.57;;;21.10;;
2474;SDS011;1248;48.694;10.160;2024-03-02T01:46:57;40.50;;;22.50;;
2474;SDS011;1248;48.694;10.160;2024-03-02T01:49:25;36.17;;;22.80;;
2474;SDS011;1248;48.694;10.160;2024-03-02T01:51:52;37.30;;;21.90;;
2474;SDS011;1248;48.694;10.160;2024-03-02T01:54:19;43.13;;;24.20;;
2474;SDS011;1248;48.694;10.160;2024-03-02T01:56:47;35.43;;;21.50;;
2474;SDS011;1248;48.694;10.160;2024-03-02T01:59:14;39.60;;;22.67;;
2474;SDS011;1248;48.694;10.160;2024-03-02T02:01:41;39.40;;;21.03;;
2474;SDS011;1248;48.694;10.160;2024-03-02T02:04:08;41.70;;;21.47;;
2474;SDS011;1248;48.694;10.160;2024-03-02T02:06:35;41.00;;;23.97;;
2474;SDS011;1248;48.694;10.160;2024-03-02T02:09:02;44.27;;;23.80;;
2474;SDS011;1248;48.694;10.160;2024-03-02T02:11:29;45.77;;;25.60;;
2474;SDS011;1248;48.694;10.160;2024-03-02T02:13:58;44.93;;;24.60;;
2474;SDS011;1248;48.694;10.160;2024-03-02T02:16:25;41.60;;;23.57;;
2474;SDS011;1248;48.694;10.160;2024-03-02T02:18:52;45.07;;;26.33;;
2474;SDS011;1248;48.694;10.160;2024-03-02T02:21:23;45.60;;;23.53;;
2474;SDS011;1248;48.694;10.160;2024-03-02T02:23:50;40.67;;;24.37;;
2474;SDS011;1248;48.694;10.160;2024-03-02T02:26:17;45.97;;;24.33;;
2474;SDS011;1248;48.694;10.160;2024-03-02T02:28:44;45.37;;;24.70;;
2474;SDS011;1248;48.694;10.160;2024-03-02T02:31:13;50.23;;;24.40;;
2474;SDS011;1248;48.694;10.160;2024-03-02T02:33:40;47.30;;;25.37;;
2474;SDS011;1248;48.694;10.160;2024-03-02T02:36:07;44.70;;;24.10;;
2474;SDS011;1248;48.694;10.160;2024-03-02T02:38:37;59.57;;;26.60;;
2474;SDS011;1248;48.694;10.160;2024-03-02T02:41:06;49.17;;;25.67;;
2474;SDS011;1248;48.694;10.160;2024-03-02T02:43:33;45.03;;;24.40;;
2474;SDS011;1248;48.694;10.160;2024-03-02T02:46:00;41.53;;;23.33;;
2474;SDS011;1248;48.694;10.160;2024-03-02T02:48:27;44.60;;;25.47;;
2474;SDS011;1248;48.694;10.160;2024-03-02T02:50:54;49.67;;;25.40;;
2474;SDS011;1248;48.694;10.160;2024-03-02T02:53:21;40.83;;;23.27;;
2474;SDS011;1248;48.694;10.160;2024-03-02T02:55:50;54.77;;;25.80;;
2474;SDS011;1248;48.694;10.160;2024-03-02T02:58:18;39.70;;;23.43;;
2474;SDS011;1248;48.694;10.160;2024-03-02T03:00:45;48.93;;;25.70;;
2474;SDS011;1248;48.694;10.160;2024-03-02T03:03:12;50.27;;;23.87;;
2474;SDS011;1248;48.694;10.160;2024-03-02T03:05:40;42.67;;;23.63;;
2474;SDS011;1248;48.694;10.160;2024-03-02T03:08:07;50.33;;;22.10;;
2474;SDS011;1248;48.694;10.160;2024-03-02T03:10:34;43.00;;;23.53;;
2474;SDS011;1248;48.694;10.160;2024-03-02T03:13:02;45.47;;;24.63;;
2474;SDS011;1248;48.694;10.160;2024-03-02T03:15:29;44.80;;;25.83;;
2474;SDS011;1248;48.694;10.160;2024-03-02T03:17:56;46.40;;;23.97;;
2474;SDS011;1248;48.694;10.160;2024-03-02T03:20:23;48.43;;;24.47;;
2474;SDS011;1248;48.694;10.160;2024-03-02T03:22:50;53.60;;;25.70;;
2474;SDS011;1248;48.694;10.160;2024-03-02T03:25:17;47.20;;;25.53;;
2474;SDS011;1248;48.694;10.160;2024-03-02T03:27:44;39.40;;;23.73;;
2474;SDS011;1248;48.694;10.160;2024-03-02T03:30:13;45.63;;;24.27;;
2474;SDS011;1248;48.694;10.160;2024-03-02T03:32:40;48.90;;;25.50;;
2474;SDS011;1248;48.694;10.160;2024-03-02T03:35:08;51.53;;;23.93;;
2474;SDS011;1248;48.694;10.160;2024-03-02T03:37:35;51.23;;;25.57;;
2474;SDS011;1248;48.694;10.160;2024-03-02T03:40:02;48.73;;;23.20;;
2474;SDS011;1248;48.694;10.160;2024-03-02T03:42:35;44.27;;;24.27;;
2474;SDS011;1248;48.694;10.160;2024-03-02T03:45:02;45.93;;;24.77;;
2474;SDS011;1248;48.694;10.160;2024-03-02T03:47:32;49.57;;;25.83;;
2474;SDS011;1248;48.694;10.160;2024-03-02T03:49:59;52.77;;;25.33;;
2474;SDS011;1248;48.694;10.160;2024-03-02T03:52:26;51.93;;;25.67;;
2474;SDS011;1248;48.694;10.160;2024-03-02T03:54:53;48.90;;;24.20;;
2474;SDS011;1248;48.694;10.160;2024-03-02T03:57:20;54.33;;;26.50;;
2474;SDS011;1248;48.694;10.160;2024-03-02T03:59:47;49.00;;;24.90;;
2474;SDS011;1248;48.694;10.160;2024-03-02T04:02:14;49.70;;;26.27;;
2474;SDS011;1248;48.694;10.160;2024-03-02T04:04:42;44.70;;;24.60;;
2474;SDS011;1248;48.694;10.160;2024-03-02T04:07:10;49.37;;;26.37;;
2474;SDS011;1248;48.694;10.160;2024-03-02T04:09:37;49.20;;;24.10;;
2474;SDS011;1248;48.694;10.160;2024-03-02T04:12:04;44.70;;;24.60;;
2474;SDS011;1248;48.694;10.160;2024-03-02T04:14:31;38.73;;;23.33;;
2474;SDS011;1248;48.694;10.160;2024-03-02T04:16:58;43.80;;;23.33;;
2474;SDS011;1248;48.694;10.160;2024-03-02T04:19:25;45.67;;;23.37;;
2474;SDS011;1248;48.694;10.160;2024-03-02T04:21:54;50.80;;;25.50;;
2474;SDS011;1248;48.694;10.160;2024-03-02T04:24:21;44.33;;;25.00;;
2474;SDS011;1248;48.694;10.160;2024-03-02T04:26:48;39.60;;;23.77;;
2474;SDS011;1248;48.694;10.160;2024-03-02T04:29:15;47.57;;;24.60;;
2474;SDS011;1248;48.694;10.160;2024-03-02T04:31:42;45.20;;;24.33;;
2474;SDS011;1248;48.694;10.160;2024-03-02T04:34:09;47.53;;;24.50;;
2474;SDS011;1248;48.694;10.160;2024-03-02T04:36:36;52.70;;;25.67;;
2474;SDS011;1248;48.694;10.160;2024-03-02T04:39:04;50.07;;;26.80;;
2474;SDS011;1248;48.694;10.160;2024-03-02T04:41:35;42.87;;;24.83;;
2474;SDS011;1248;48.694;10.160;2024-03-02T04:44:02;47.67;;;24.33;;
2474;SDS011;1248;48.694;10.160;2024-03-02T04:46:29;50.50;;;26.20;;
2474;SDS011;1248;48.694;10.160;2024-03-02T04:48:56;57.17;;;25.97;;
2474;SDS011;1248;48.694;10.160;2024-03-02T04:51:23;45.83;;;25.77;;
2474;SDS011;1248;48.694;10.160;2024-03-02T04:53:50;48.30;;;25.33;;
2474;SDS011;1248;48.694;10.160;2024-03-02T04:56:18;45.20;;;23.50;;
2474;SDS011;1248;48.694;10.160;2024-03-02T04:59:04;50.90;;;25.10;;
2474;SDS011;1248;48.694;10.160;2024-03-02T05:01:31;50.97;;;26.20;;
2474;SDS011;1248;48.694;10.160;2024-03-02T05:03:59;63.73;;;29.20;;
2474;SDS011;1248;48.694;10.160;2024-03-02T05:06:26;67.27;;;30.80;;
2474;SDS011;1248;48.694;10.160;2024-03-02T05:08:53;59.50;;;29.30;;
2474;SDS011;1248;48.694;10.160;2024-03-02T05:11:21;61.40;;;29.70;;
2474;SDS011;1248;48.694;10.160;2024-03-02T05:14:06;57.70;;;29.87;;
2474;SDS011;1248;48.694;10.160;2024-03-02T05:16:33;68.70;;;29.73;;
2474;SDS011;1248;48.694;10.160;2024-03-02T05:19:01;68.50;;;32.57;;
2474;SDS011;1248;48.694;10.160;2024-03-02T05:21:28;71.73;;;30.70;;
2474;SDS011;1248;48.694;10.160;2024-03-02T05:23:55;69.43;;;31.40;;
2474;SDS011;1248;48.694;10.160;2024-03-02T05:26:23;73.50;;;33.60;;
2474;SDS011;1248;48.694;10.160;2024-03-02T05:28:50;69.40;;;32.87;;
2474;SDS011;1248;48.694;10.160;2024-03-02T05:31:18;76.03;;;32.87;;
2474;SDS011;1248;48.694;10.160;2024-03-02T05:33:45;78.33;;;32.97;;
2474;SDS011;1248;48.694;10.160;2024-03-02T05:36:12;67.30;;;29.57;;
2474;SDS011;1248;48.694;10.160;2024-03-02T05:38:39;87.63;;;31.63;;
2474;SDS011;1248;48.694;10.160;2024-03-02T05:41:06;71.97;;;32.93;;
2474;SDS011;1248;48.694;10.160;2024-03-02T05:43:34;91.20;;;33.90;;
2474;SDS011;1248;48.694;10.160;2024-03-02T05:46:02;78.27;;;33.10;;
2474;SDS011;1248;48.694;10.160;2024-03-02T05:48:29;79.63;;;32.50;;
2474;SDS011;1248;48.694;10.160;2024-03-02T05:50:56;79.17;;;37.90;;
2474;SDS011;1248;48.694;10.160;2024-03-02T05:53:23;76.60;;;33.80;;
2474;SDS011;1248;48.694;10.160;2024-03-02T05:55:50;64.90;;;31.43;;
2474;SDS011;1248;48.694;10.160;2024-03-02T05:58:20;67.87;;;30.60;;
2474;SDS011;1248;48.694;10.160;2024-03-02T06:00:59;83.03;;;31.70;;
2474;SDS011;1248;48.694;10.160;2024-03-02T06:03:26;68.70;;;29.90;;
2474;SDS011;1248;48.694;10.160;2024-03-02T06:05:54;80.47;;;34.00;;
2474;SDS011;1248;48.694;10.160;2024-03-02T06:08:21;78.50;;;34.87;;
2474;SDS011;1248;48.694;10.160;2024-03-02T06:10:48;61.10;;;31.13;;
2474;SDS011;1248;48.694;10.160;2024-03-02T06:13:15;70.50;;;30.50;;
2474;SDS011;1248;48.694;10.160;2024-03-02T06:15:42;67.20;;;31.27;;
2474;SDS011;1248;48.694;10.160;2024-03-02T06:18:10;77.00;;;33.87;;
2474;SDS011;1248;48.694;10.160;2024-03-02T06:20:37;85.90;;;33.37;;
2474;SDS011;1248;48.694;10.160;2024-03-02T06:23:04;76.97;;;33.50;;
2474;SDS011;1248;48.694;10.160;2024-03-02T06:25:32;83.30;;;34.07;;
2474;SDS011;1248;48.694;10.160;2024-03-02T06:27:59;75.83;;;33.97;;
2474;SDS011;1248;48.694;10.160;2024-03-02T06:30:26;83.73;;;34.57;;
2474;SDS011;1248;48.694;10.160;2024-03-02T06:32:53;87.47;;;34.97;;
2474;SDS011;1248;48.694;10.160;2024-03-02T06:35:21;76.83;;;34.27;;
2474;SDS011;1248;48.694;10.160;2024-03-02T06:37:48;62.63;;;32.50;;
2474;SDS011;1248;48.694;10.160;2024-03-02T06:40:16;61.97;;;31.07;;
2474;SDS011;1248;48.694;10.160;2024-03-02T06:42:43;71.17;;;32.97;;
2474;SDS011;1248;48.694;10.160;2024-03-02T06:45:10;69.53;;;31.90;;
2474;SDS011;1248;48.694;10.160;2024-03-02T06:47:37;74.07;;;31.10;;
2474;SDS011;1248;48.694;10.160;2024-03-02T06:50:05;68.87;;;31.00;;
2474;SDS011;1248;48.694;10.160;2024-03-02T06:52:34;84.37;;;35.87;;
2474;SDS011;1248;48.694;10.160;2024-03-02T06:55:01;72.37;;;31.73;;
2474;SDS011;1248;48.694;10.160;2024-03-02T06:57:28;76.23;;;35.27;;
2474;SDS011;1248;48.694;10.160;2024-03-02T06:59:54;68.37;;;30.87;;
2474;SDS011;1248;48.694;10.160;2024-03-02T07:02:24;81.47;;;32.33;;
2474;SDS011;1248;48.694;10.160;2024-03-02T07:04:52;71.80;;;32.50;;
2474;SDS011;1248;48.694;10.160;2024-03-02T07:07:19;66.50;;;29.40;;
2474;SDS011;1248;48.694;10.160;2024-03-02T07:09:47;55.97;;;27.70;;
2474;SDS011;1248;48.694;10.160;2024-03-02T07:12:14;62.10;;;30.10;;
2474;SDS011;1248;48.694;10.160;2024-03-02T07:14:41;51.67;;;25.90;;
2474;SDS011;1248;48.694;10.160;2024-03-02T07:17:36;58.17;;;27.60;;
2474;SDS011;1248;48.694;10.160;2024-03-02T07:20:04;53.00;;;28.17;;
2474;SDS011;1248;48.694;10.160;2024-03-02T07:22:32;57.80;;;26.30;;
2474;SDS011;1248;48.694;10.160;2024-03-02T07:25:01;47.07;;;25.20;;
2474;SDS011;1248;48.694;10.160;2024-03-02T07:27:28;54.27;;;28.00;;
2474;SDS011;1248;48.694;10.160;2024-03-02T07:29:55;49.97;;;27.70;;
2474;SDS011;1248;48.694;10.160;2024-03-02T07:32:23;50.77;;;25.67;;
2474;SDS011;1248;48.694;10.160;2024-03-02T07:34:50;46.50;;;23.80;;
2474;SDS011;1248;48.694;10.160;2024-03-02T07:37:17;47.17;;;23.60;;
2474;SDS011;1248;48.694;10.160;2024-03-02T07:39:45;51.40;;;25.20;;
2474;SDS011;1248;48.694;10.160;2024-03-02T07:42:14;54.27;;;25.83;;
2474;SDS011;1248;48.694;10.160;2024-03-02T07:44:41;51.40;;;23.67;;
2474;SDS011;1248;48.694;10.160;2024-03-02T07:47:10;48.50;;;25.87;;
2474;SDS011;1248;48.694;10.160;2024-03-02T07:49:37;52.97;;;26.40;;
2474;SDS011;1248;48.694;10.160;2024-03-02T07:52:04;46.57;;;24.30;;
2474;SDS011;1248;48.694;10.160;2024-03-02T07:54:31;39.23;;;21.83;;
2474;SDS011;1248;48.694;10.160;2024-03-02T07:56:58;39.50;;;22.00;;
2474;SDS011;1248;48.694;10.160;2024-03-02T07:59:26;39.93;;;23.03;;
2474;SDS011;1248;48.694;10.160;2024-03-02T08:01:53;38.17;;;23.40;;
2474;SDS011;1248;48.694;10.160;2024-03-02T08:04:20;41.33;;;23.20;;
2474;SDS011;1248;48.694;10.160;2024-03-02T08:06:48;36.67;;;21.20;;
2474;SDS011;1248;48.694;10.160;2024-03-02T08:09:15;32.30;;;19.73;;
2474;SDS011;1248;48.694;10.160;2024-03-02T08:11:42;37.37;;;21.37;;
2474;SDS011;1248;48.694;10.160;2024-03-02T08:14:09;28.07;;;18.53;;
2474;SDS011;1248;48.694;10.160;2024-03-02T08:16:38;31.47;;;20.07;;
2474;SDS011;1248;48.694;10.160;2024-03-02T08:19:05;30.10;;;18.47;;
2474;SDS011;1248;48.694;10.160;2024-03-02T08:21:32;32.60;;;20.43;;
2474;SDS011;1248;48.694;10.160;2024-03-02T08:24:01;28.63;;;17.93;;
2474;SDS011;1248;48.694;10.160;2024-03-02T08:26:28;35.40;;;19.63;;
2474;SDS011;1248;48.694;10.160;2024-03-02T08:28:57;28.93;;;17.90;;
2474;SDS011;1248;48.694;10.160;2024-03-02T08:31:24;33.07;;;19.70;;
2474;SDS011;1248;48.694;10.160;2024-03-02T08:33:52;30.33;;;18.20;;
2474;SDS011;1248;48.694;10.160;2024-03-02T08:36:19;25.90;;;17.40;;
2474;SDS011;1248;48.694;10.160;2024-03-02T08:38:48;24.87;;;16.07;;
2474;SDS011;1248;48.694;10.160;2024-03-02T08:41:15;28.57;;;17.60;;
2474;SDS011;1248;48.694;10.160;2024-03-02T08:43:42;29.70;;;16.97;;
2474;SDS011;1248;48.694;10.160;2024-03-02T08:46:09;24.47;;;16.73;;
2474;SDS011;1248;48.694;10.160;2024-03-02T08:48:36;25.53;;;17.27;;
2474;SDS011;1248;48.694;10.160;2024-03-02T08:51:05;29.50;;;16.77;;
2474;SDS011;1248;48.694;10.160;2024-03-02T08:53:33;27.30;;;16.60;;
2474;SDS011;1248;48.694;10.160;2024-03-02T08:56:00;21.23;;;13.63;;
2474;SDS011;1248;48.694;10.160;2024-03-02T08:58:27;26.03;;;16.47;;
2474;SDS011;1248;48.694;10.160;2024-03-02T09:00:54;19.93;;;14.77;;
2474;SDS011;1248;48.694;10.160;2024-03-02T09:03:22;25.07;;;15.80;;
2474;SDS011;1248;48.694;10.160;2024-03-02T09:05:49;24.43;;;14.73;;
2474;SDS011;1248;48.694;10.160;2024-03-02T09:08:17;18.43;;;13.00;;
2474;SDS011;1248;48.694;10.160;2024-03-02T09:10:44;19.90;;;13.93;;
2474;SDS011;1248;48.694;10.160;2024-03-02T09:13:11;18.80;;;12.73;;
2474;SDS011;1248;48.694;10.160;2024-03-02T09:15:38;19.47;;;14.43;;
2474;SDS011;1248;48.694;10.160;2024-03-02T09:18:06;24.10;;;13.67;;
2474;SDS011;1248;48.694;10.160;2024-03-02T09:20:33;21.03;;;13.63;;
2474;SDS011;1248;48.694;10.160;2024-03-02T09:23:00;18.17;;;13.10;;
2474;SDS011;1248;48.694;10.160;2024-03-02T09:25:28;18.07;;;13.43;;
2474;SDS011;1248;48.694;10.160;2024-03-02T09:27:55;19.33;;;13.17;;
2474;SDS011;1248;48.694;10.160;2024-03-02T09:30:22;23.30;;;15.50;;
2474;SDS011;1248;48.694;10.160;2024-03-02T09:32:49;24.20;;;16.90;;
2474;SDS011;1248;48.694;10.160;2024-03-02T09:35:16;23.50;;;14.00;;
2474;SDS011;1248;48.694;10.160;2024-03-02T09:37:43;20.80;;;14.83;;
2474;SDS011;1248;48.694;10.160;2024-03-02T09:40:11;25.67;;;16.30;;
2474;SDS011;1248;48.694;10.160;2024-03-02T09:42:39;19.00;;;13.50;;
2474;SDS011;1248;48.694;10.160;2024-03-02T09:45:07;19.80;;;13.20;;
2474;SDS011;1248;48.694;10.160;2024-03-02T09:47:35;22.17;;;13.00;;
2474;SDS011;1248;48.694;10.160;2024-03-02T09:50:03;21.83;;;12.77;;
2474;SDS011;1248;48.694;10.160;2024-03-02T09:52:30;19.07;;;11.50;;
2474;SDS011;1248;48.694;10.160;2024-03-02T09:54:57;17.43;;;12.27;;
2474;SDS011;1248;48.694;10.160;2024-03-02T09:57:25;16.60;;;12.27;;
2474;SDS011;1248;48.694;10.160;2024-03-02T09:59:53;17.13;;;11.17;;
2474;SDS011;1248;48.694;10.160;2024-03-02T10:02:20;14.40;;;11.40;;
2474;SDS011;1248;48.694;10.160;2024-03-02T10:04:48;17.07;;;12.67;;
2474;SDS011;1248;48.694;10.160;2024-03-02T10:07:16;21.00;;;12.53;;
2474;SDS011;1248;48.694;10.160;2024-03-02T10:09:44;18.40;;;13.80;;
2474;SDS011;1248;48.694;10.160;2024-03-02T10:12:11;16.50;;;12.13;;
2474;SDS011;1248;48.694;10.160;2024-03-02T10:14:39;20.30;;;12.13;;
2474;SDS011;1248;48.694;10.160;2024-03-02T10:17:09;16.70;;;11.90;;
2474;SDS011;1248;48.694;10.160;2024-03-02T10:19:36;15.00;;;10.57;;
2474;SDS011;1248;48.694;10.160;2024-03-02T10:22:04;15.70;;;11.03;;
2474;SDS011;1248;48.694;10.160;2024-03-02T10:24:35;17.60;;;11.80;;
2474;SDS011;1248;48.694;10.160;2024-03-02T10:27:07;17.87;;;10.63;;
2474;SDS011;1248;48.694;10.160;2024-03-02T10:29:38;16.40;;;11.07;;
2474;SDS011;1248;48.694;10.160;2024-03-02T10:32:09;14.93;;;11.50;;
2474;SDS011;1248;48.694;10.160;2024-03-02T10:34:37;14.60;;;10.83;;
2474;SDS011;1248;48.694;10.160;2024-03-02T10:37:06;16.07;;;10.80;;
2474;SDS011;1248;48.694;10.160;2024-03-02T10:39:34;14.73;;;9.63;;
2474;SDS011;1248;48.694;10.160;2024-03-02T10:42:02;13.90;;;9.80;;
2474;SDS011;1248;48.694;10.160;2024-03-02T10:44:30;13.00;;;10.13;;
2474;SDS011;1248;48.694;10.160;2024-03-02T10:46:57;12.03;;;9.10;;
2474;SDS011;1248;48.694;10.160;2024-03-02T10:49:28;14.97;;;9.40;;
2474;SDS011;1248;48.694;10.160;2024-03-02T10:51:56;16.20;;;10.63;;
2474;SDS011;1248;48.694;10.160;2024-03-02T10:54:23;13.83;;;10.60;;
2474;SDS011;1248;48.694;10.160;2024-03-02T10:56:55;11.50;;;9.60;;
2474;SDS011;1248;48.694;10.160;2024-03-02T10:59:24;16.53;;;10.63;;
2474;SDS011;1248;48.694;10.160;2024-03-02T11:01:55;13.20;;;8.77;;
2474;SDS011;1248;48.694;10.160;2024-03-02T11:04:24;11.10;;;8.00;;
2474;SDS011;1248;48.694;10.160;2024-03-02T11:06:54;10.70;;;8.27;;
2474;SDS011;1248;48.694;10.160;2024-03-02T11:09:26;10.97;;;8.20;;
2474;SDS011;1248;48.694;10.160;2024-03-02T11:11:56;10.47;;;7.97;;
2474;SDS011;1248;48.694;10.160;2024-03-02T11:14:29;13.43;;;8.30;;
2474;SDS011;1248;48.694;10.160;2024-03-02T11:16:57;10.23;;;7.53;;
2474;SDS011;1248;48.694;10.160;2024-03-02T11:19:24;9.17;;;7.07;;
2474;SDS011;1248;48.694;10.160;2024-03-02T11:21:52;9.97;;;6.80;;
2474;SDS011;1248;48.694;10.160;2024-03-02T11:24:32;9.27;;;7.10;;
2474;SDS011;1248;48.694;10.160;2024-03-02T11:27:00;6.83;;;5.10;;
2474;SDS011;1248;48.694;10.160;2024-03-02T11:29:43;10.07;;;7.10;;
2474;SDS011;1248;48.694;10.160;2024-03-02T11:32:13;8.50;;;7.20;;
2474;SDS011;1248;48.694;10.160;2024-03-02T11:34:41;8.53;;;6.40;;
2474;SDS011;1248;48.694;10.160;2024-03-02T11:37:12;9.60;;;5.97;;
2474;SDS011;1248;48.694;10.160;2024-03-02T11:39:40;9.63;;;4.93;;
2474;SDS011;1248;48.694;10.160;2024-03-02T11:42:07;6.17;;;4.10;;
2474;SDS011;1248;48.694;10.160;2024-03-02T11:44:35;6.30;;;4.73;;
2474;SDS011;1248;48.694;10.160;2024-03-02T11:47:05;6.97;;;5.67;;
2474;SDS011;1248;48.694;10.160;2024-03-02T11:49:38;4.77;;;4.30;;
2474;SDS011;1248;48.694;10.160;2024-03-02T11:52:07;5.50;;;3.60;;
2474;SDS011;1248;48.694;10.160;2024-03-02T11:54:36;4.40;;;4.00;;
2474;SDS011;1248;48.694;10.160;2024-03-02T11:57:05;3.13;;;2.83;;
2474;SDS011;1248;48.694;10.160;2024-03-02T11:59:33;7.87;;;4.07;;
2474;SDS011;1248;48.694;10.160;2024-03-02T12:02:00;3.10;;;2.80;;
2474;SDS011;1248;48.694;10.160;2024-03-02T12:04:28;13.30;;;3.70;;
2474;SDS011;1248;48.694;10.160;2024-03-02T12:06:56;3.20;;;2.90;;
2474;SDS011;1248;48.694;10.160;2024-03-02T12:09:26;4.97;;;2.67;;
2474;SDS011;1248;48.694;10.160;2024-03-02T12:12:04;5.57;;;3.17;;
2474;SDS011;1248;48.694;10.160;2024-03-02T12:14:32;6.50;;;3.73;;
2474;SDS011;1248;48.694;10.160;2024-03-02T12:17:00;3.47;;;3.10;;
2474;SDS011;1248;48.694;10.160;2024-03-02T12:19:27;5.10;;;4.00;;
2474;SDS011;1248;48.694;10.160;2024-03-02T12:21:55;4.70;;;3.80;;
2474;SDS011;1248;48.694;10.160;2024-03-02T12:24:24;4.87;;;4.10;;
2474;SDS011;1248;48.694;10.160;2024-03-02T12:26:51;3.80;;;3.20;;
2474;SDS011;1248;48.694;10.160;2024-03-02T12:29:20;4.30;;;3.90;;
2474;SDS011;1248;48.694;10.160;2024-03-02T12:31:47;5.30;;;4.47;;
2474;SDS011;1248;48.694;10.160;2024-03-02T12:34:15;5.83;;;4.67;;
2474;SDS011;1248;48.694;10.160;2024-03-02T12:36:43;6.00;;;4.90;;
2474;SDS011;1248;48.694;10.160;2024-03-02T12:39:13;5.77;;;4.60;;
2474;SDS011;1248;48.694;10.160;2024-03-02T12:41:40;6.00;;;4.37;;
2474;SDS011;1248;48.694;10.160;2024-03-02T12:44:07;6.30;;;4.43;;
2474;SDS011;1248;48.694;10.160;2024-03-02T12:46:36;5.70;;;3.90;;
2474;SDS011;1248;48.694;10.160;2024-03-02T12:49:07;7.67;;;5.70;;
2474;SDS011;1248;48.694;10.160;2024-03-02T12:51:35;5.30;;;4.80;;
2474;SDS011;1248;48.694;10.160;2024-03-02T12:54:02;5.43;;;4.20;;
2474;SDS011;1248;48.694;10.160;2024-03-02T12:56:30;7.43;;;5.80;;
2474;SDS011;1248;48.694;10.160;2024-03-02T12:58:58;7.00;;;5.40;;
2474;SDS011;1248;48.694;10.160;2024-03-02T13:01:25;8.87;;;5.77;;
2474;SDS011;1248;48.694;10.160;2024-03-02T13:03:54;6.23;;;5.53;;
2474;SDS011;1248;48.694;10.160;2024-03-02T13:06:23;5.80;;;5.10;;
2474;SDS011;1248;48.694;10.160;2024-03-02T13:08:50;7.70;;;5.80;;
2474;SDS011;1248;48.694;10.160;2024-03-02T13:11:17;6.20;;;5.60;;
2474;SDS011;1248;48.694;10.160;2024-03-02T13:13:45;9.20;;;4.67;;
2474;SDS011;1248;48.694;10.160;2024-03-02T13:16:12;6.47;;;5.80;;
2474;SDS011;1248;48.694;10.160;2024-03-02T13:18:41;6.10;;;5.27;;
2474;SDS011;1248;48.694;10.160;2024-03-02T13:21:10;9.43;;;5.37;;
2474;SDS011;1248;48.694;10.160;2024-03-02T13:23:37;5.57;;;5.07;;
2474;SDS011;1248;48.694;10.160;2024-03-02T13:26:04;6.00;;;5.37;;
2474;SDS011;1248;48.694;10.160;2024-03-02T13:28:33;6.03;;;5.10;;
2474;SDS011;1248;48.694;10.160;2024-03-02T13:31:00;5.60;;;4.70;;
2474;SDS011;1248;48.694;10.160;2024-03-02T13:33:27;6.47;;;5.77;;
2474;SDS011;1248;48.694;10.160;2024-03-02T13:35:55;6.83;;;4.60;;
2474;SDS011;1248;48.694;10.160;2024-03-02T13:38:24;6.63;;;5.43;;
2474;SDS011;1248;48.694;10.160;2024-03-02T13:40:51;5.63;;;4.57;;
2474;SDS011;1248;48.694;10.160;2024-03-02T13:43:18;5.40;;;4.90;;
2474;SDS011;1248;48.694;10.160;2024-03-02T13:45:45;7.20;;;5.00;;
2474;SDS011;1248;48.694;10.160;2024-03-02T13:48:13;4.83;;;4.43;;
2474;SDS011;1248;48.694;10.160;2024-03-02T13:50:40;5.33;;;4.83;;
2474;SDS011;1248;48.694;10.160;2024-03-02T13:53:07;5.17;;;4.57;;
2474;SDS011;1248;48.694;10.160;2024-03-02T13:55:36;6.10;;;5.00;;
2474;SDS011;1248;48.694;10.160;2024-03-02T13:58:04;5.60;;;5.00;;
2474;SDS011;1248;48.694;10.160;2024-03-02T14:00:31;6.03;;;4.87;;
2474;SDS011;1248;48.694;10.160;2024-03-02T14:02:58;10.43;;;4.60;;
2474;SDS011;1248;48.694;10.160;2024-03-02T14:05:25;5.43;;;4.87;;
2474;SDS011;1248;48.694;10.160;2024-03-02T14:07:52;6.63;;;4.30;;
2474;SDS011;1248;48.694;10.160;2024-03-02T14:10:20;7.23;;;5.10;;
2474;SDS011;1248;48.694;10.160;2024-03-02T14:12:49;7.47;;;5.00;;
2474;SDS011;1248;48.694;10.160;2024-03-02T14:15:16;8.10;;;6.73;;
2474;SDS011;1248;48.694;10.160;2024-03-02T14:17:43;8.03;;;7.20;;
2474;SDS011;1248;48.694;10.160;2024-03-02T14:20:11;10.63;;;7.53;;
2474;SDS011;1248;48.694;10.160;2024-03-02T14:22:39;8.83;;;6.90;;
2474;SDS011;1248;48.694;10.160;2024-03-02T14:25:06;10.17;;;7.97;;
2474;SDS011;1248;48.694;10.160;2024-03-02T14:27:34;9.93;;;7.50;;
2474;SDS011;1248;48.694;10.160;2024-03-02T14:30:03;9.37;;;7.57;;
2474;SDS011;1248;48.694;10.160;2024-03-02T14:32:32;10.23;;;6.60;;
2474;SDS011;1248;48.694;10.160;2024-03-02T14:34:59;8.13;;;7.30;;
2474;SDS011;1248;48.694;10.160;2024-03-02T14:37:26;6.67;;;5.70;;
2474;SDS011;1248;48.694;10.160;2024-03-02T14:39:53;11.63;;;7.20;;
2474;SDS011;1248;48.694;10.160;2024-03-02T14:42:21;12.23;;;7.10;;
2474;SDS011;1248;48.694;10.160;2024-03-02T14:44:48;10.90;;;9.00;;